Terminal Aerodrome Forecast
Issued by NWS Boston, MA

Home | Current Version | Previous Version | Text Only | Print | Product List | Glossary On
Versions: 1 2 3 4 5 6 7 8 9 10 11 12 13 14 15 16 17 18 19 20 21 22 23 24 25 26 27 28 29 30 31 32 33 34 35 36 37 38 39 40 41 42 43 44 45 46 47 48 49 50
000
FTUS41 KBOX 051121
TAFPVD
TAF
KPVD 051121Z 0512/0612 34005KT 1SM -SN BR OVC011
     FM051500 34005KT 3SM -SN BR OVC015
     FM051700 34006KT P6SM OVC025
     FM060100 33007KT P6SM BKN060
     FM060400 34007KT P6SM SCT120=

USA.gov is the U.S. government's official web portal to all federal, state and local government web resources and services.